Boise City, Oklahoma
Current Conditions -  °F | °C
As of 1:55 AM on Friday 31 Oct 2014 (Local Time) from KCAO Reporting Station
Clear Clear  
Wind Chill: 43°   Ceiling: Unl
Heat Index: 43°   Visibility: 10mi
Dew Point: 24°   Wind: 3mph
Humidity: 47%   Direction: 360°N
Pressure: 30.43"   Gusts: NA
Location:  36.73°N, 102.51°W
Report Text: KCAO 310655Z AUTO 36003KT 10SM CLR 06/M04 A3043 RMK AO2 SLP274 T00611044 401940050
Loading
Personal Weather Stations






























Interactive Weather Map
Tropical Storm Tracking
New forecast layout! Learn more

10-Day Weather Forecast

Advertisements
Track Severe Weather on mobile